sensor_id;sensor_type;location;lat;lon;timestamp;P1;durP1;ratioP1;P2;durP2;ratioP2
23952;SDS011;12163;49.316;6.092;2022-10-30T00:01:34;29.02;;;9.93;;
23952;SDS011;12163;49.316;6.092;2022-10-30T00:04:01;19.13;;;9.18;;
23952;SDS011;12163;49.316;6.092;2022-10-30T00:06:28;27.45;;;9.68;;
23952;SDS011;12163;49.316;6.092;2022-10-30T00:08:54;22.67;;;8.55;;
23952;SDS011;12163;49.316;6.092;2022-10-30T00:11:21;25.50;;;10.30;;
23952;SDS011;12163;49.316;6.092;2022-10-30T00:13:48;29.05;;;10.20;;
23952;SDS011;12163;49.316;6.092;2022-10-30T00:16:15;23.23;;;9.73;;
23952;SDS011;12163;49.316;6.092;2022-10-30T00:18:41;19.75;;;9.77;;
23952;SDS011;12163;49.316;6.092;2022-10-30T00:21:09;25.10;;;9.27;;
23952;SDS011;12163;49.316;6.092;2022-10-30T00:23:37;33.42;;;9.77;;
23952;SDS011;12163;49.316;6.092;2022-10-30T00:26:04;26.30;;;9.90;;
23952;SDS011;12163;49.316;6.092;2022-10-30T00:28:32;28.30;;;11.43;;
23952;SDS011;12163;49.316;6.092;2022-10-30T00:31:00;32.88;;;11.20;;
23952;SDS011;12163;49.316;6.092;2022-10-30T00:33:28;28.45;;;10.75;;
23952;SDS011;12163;49.316;6.092;2022-10-30T00:35:55;28.98;;;11.32;;
23952;SDS011;12163;49.316;6.092;2022-10-30T00:38:22;22.55;;;10.82;;
23952;SDS011;12163;49.316;6.092;2022-10-30T00:40:48;24.33;;;10.32;;
23952;SDS011;12163;49.316;6.092;2022-10-30T00:48:55;32.35;;;10.00;;
23952;SDS011;12163;49.316;6.092;2022-10-30T00:51:26;21.00;;;10.05;;
23952;SDS011;12163;49.316;6.092;2022-10-30T00:53:54;26.50;;;10.23;;
23952;SDS011;12163;49.316;6.092;2022-10-30T00:56:23;28.23;;;10.15;;
23952;SDS011;12163;49.316;6.092;2022-10-30T00:59:12;31.80;;;10.38;;
23952;SDS011;12163;49.316;6.092;2022-10-30T01:01:41;20.90;;;9.55;;
23952;SDS011;12163;49.316;6.092;2022-10-30T01:04:10;22.83;;;9.95;;
23952;SDS011;12163;49.316;6.092;2022-10-30T01:06:39;25.90;;;9.73;;
23952;SDS011;12163;49.316;6.092;2022-10-30T01:09:08;32.78;;;10.23;;
23952;SDS011;12163;49.316;6.092;2022-10-30T01:11:34;24.70;;;9.90;;
23952;SDS011;12163;49.316;6.092;2022-10-30T01:14:02;27.00;;;9.57;;
23952;SDS011;12163;49.316;6.092;2022-10-30T01:25:35;19.55;;;9.73;;
23952;SDS011;12163;49.316;6.092;2022-10-30T01:28:27;23.95;;;8.80;;
23952;SDS011;12163;49.316;6.092;2022-10-30T01:36:58;17.83;;;8.35;;
23952;SDS011;12163;49.316;6.092;2022-10-30T01:39:31;22.60;;;8.57;;
23952;SDS011;12163;49.316;6.092;2022-10-30T01:42:07;25.38;;;10.23;;
23952;SDS011;12163;49.316;6.092;2022-10-30T01:44:56;22.63;;;9.35;;
23952;SDS011;12163;49.316;6.092;2022-10-30T01:50:25;28.33;;;9.73;;
23952;SDS011;12163;49.316;6.092;2022-10-30T01:53:10;22.38;;;9.43;;
23952;SDS011;12163;49.316;6.092;2022-10-30T01:55:52;22.60;;;8.57;;
23952;SDS011;12163;49.316;6.092;2022-10-30T01:58:28;32.88;;;9.65;;
23952;SDS011;12163;49.316;6.092;2022-10-30T02:01:02;30.02;;;9.75;;
23952;SDS011;12163;49.316;6.092;2022-10-30T02:03:29;26.00;;;9.45;;
23952;SDS011;12163;49.316;6.092;2022-10-30T02:05:56;32.72;;;9.90;;
23952;SDS011;12163;49.316;6.092;2022-10-30T02:08:23;23.00;;;10.43;;
23952;SDS011;12163;49.316;6.092;2022-10-30T02:10:50;20.85;;;8.43;;
23952;SDS011;12163;49.316;6.092;2022-10-30T02:13:19;30.88;;;9.25;;
23952;SDS011;12163;49.316;6.092;2022-10-30T02:15:46;27.20;;;9.77;;
23952;SDS011;12163;49.316;6.092;2022-10-30T02:18:13;29.77;;;11.18;;
23952;SDS011;12163;49.316;6.092;2022-10-30T02:20:40;32.05;;;10.20;;
23952;SDS011;12163;49.316;6.092;2022-10-30T02:23:07;23.60;;;9.73;;
23952;SDS011;12163;49.316;6.092;2022-10-30T02:25:37;21.65;;;10.00;;
23952;SDS011;12163;49.316;6.092;2022-10-30T02:28:04;31.13;;;10.27;;
23952;SDS011;12163;49.316;6.092;2022-10-30T02:30:31;20.75;;;9.63;;
23952;SDS011;12163;49.316;6.092;2022-10-30T02:32:57;27.27;;;10.10;;
23952;SDS011;12163;49.316;6.092;2022-10-30T02:35:24;30.25;;;10.02;;
23952;SDS011;12163;49.316;6.092;2022-10-30T02:37:51;31.77;;;9.15;;
23952;SDS011;12163;49.316;6.092;2022-10-30T02:40:18;26.33;;;8.95;;
23952;SDS011;12163;49.316;6.092;2022-10-30T02:42:49;25.88;;;9.55;;
23952;SDS011;12163;49.316;6.092;2022-10-30T02:45:18;26.15;;;9.63;;
23952;SDS011;12163;49.316;6.092;2022-10-30T02:47:44;26.55;;;9.13;;
23952;SDS011;12163;49.316;6.092;2022-10-30T02:50:11;22.25;;;9.82;;
23952;SDS011;12163;49.316;6.092;2022-10-30T02:52:38;30.77;;;9.10;;
23952;SDS011;12163;49.316;6.092;2022-10-30T02:55:05;27.60;;;9.55;;
23952;SDS011;12163;49.316;6.092;2022-10-30T02:57:32;23.30;;;9.27;;
23952;SDS011;12163;49.316;6.092;2022-10-30T02:59:59;28.67;;;9.32;;
23952;SDS011;12163;49.316;6.092;2022-10-30T03:02:25;24.75;;;9.43;;
23952;SDS011;12163;49.316;6.092;2022-10-30T03:04:52;30.23;;;9.60;;
23952;SDS011;12163;49.316;6.092;2022-10-30T03:07:18;20.85;;;9.73;;
23952;SDS011;12163;49.316;6.092;2022-10-30T03:09:45;25.42;;;9.27;;
23952;SDS011;12163;49.316;6.092;2022-10-30T03:12:11;24.60;;;9.80;;
23952;SDS011;12163;49.316;6.092;2022-10-30T03:14:38;33.13;;;10.43;;
23952;SDS011;12163;49.316;6.092;2022-10-30T03:17:04;23.52;;;9.25;;
23952;SDS011;12163;49.316;6.092;2022-10-30T03:19:31;28.80;;;9.82;;
23952;SDS011;12163;49.316;6.092;2022-10-30T03:21:58;34.47;;;9.48;;
23952;SDS011;12163;49.316;6.092;2022-10-30T03:24:24;25.05;;;8.73;;
23952;SDS011;12163;49.316;6.092;2022-10-30T03:26:51;31.98;;;10.27;;
23952;SDS011;12163;49.316;6.092;2022-10-30T03:29:17;23.58;;;10.00;;
23952;SDS011;12163;49.316;6.092;2022-10-30T03:31:44;30.55;;;9.98;;
23952;SDS011;12163;49.316;6.092;2022-10-30T03:34:11;28.15;;;9.88;;
23952;SDS011;12163;49.316;6.092;2022-10-30T03:36:37;27.35;;;10.35;;
23952;SDS011;12163;49.316;6.092;2022-10-30T03:39:04;26.55;;;9.82;;
23952;SDS011;12163;49.316;6.092;2022-10-30T03:41:30;28.73;;;9.98;;
23952;SDS011;12163;49.316;6.092;2022-10-30T03:43:57;30.83;;;9.48;;
23952;SDS011;12163;49.316;6.092;2022-10-30T03:46:24;29.30;;;9.15;;
23952;SDS011;12163;49.316;6.092;2022-10-30T03:48:50;26.35;;;8.75;;
23952;SDS011;12163;49.316;6.092;2022-10-30T03:51:17;28.38;;;9.98;;
23952;SDS011;12163;49.316;6.092;2022-10-30T03:53:43;25.92;;;9.82;;
23952;SDS011;12163;49.316;6.092;2022-10-30T03:56:10;30.02;;;9.63;;
23952;SDS011;12163;49.316;6.092;2022-10-30T03:58:36;31.00;;;10.25;;
23952;SDS011;12163;49.316;6.092;2022-10-30T04:01:04;25.35;;;9.85;;
23952;SDS011;12163;49.316;6.092;2022-10-30T04:03:31;16.58;;;8.27;;
23952;SDS011;12163;49.316;6.092;2022-10-30T04:05:58;24.10;;;9.40;;
23952;SDS011;12163;49.316;6.092;2022-10-30T04:08:25;23.35;;;8.98;;
23952;SDS011;12163;49.316;6.092;2022-10-30T04:10:51;19.60;;;8.70;;
23952;SDS011;12163;49.316;6.092;2022-10-30T04:13:18;30.00;;;10.18;;
23952;SDS011;12163;49.316;6.092;2022-10-30T04:15:48;21.80;;;9.35;;
23952;SDS011;12163;49.316;6.092;2022-10-30T04:18:22;25.67;;;10.05;;
23952;SDS011;12163;49.316;6.092;2022-10-30T04:20:49;24.45;;;9.05;;
23952;SDS011;12163;49.316;6.092;2022-10-30T04:23:16;31.17;;;8.80;;
23952;SDS011;12163;49.316;6.092;2022-10-30T04:25:45;26.80;;;9.32;;
23952;SDS011;12163;49.316;6.092;2022-10-30T04:28:11;27.83;;;9.73;;
23952;SDS011;12163;49.316;6.092;2022-10-30T04:30:38;31.42;;;9.30;;
23952;SDS011;12163;49.316;6.092;2022-10-30T04:33:06;27.65;;;9.65;;
23952;SDS011;12163;49.316;6.092;2022-10-30T04:35:36;25.60;;;9.35;;
23952;SDS011;12163;49.316;6.092;2022-10-30T04:38:04;28.42;;;9.23;;
23952;SDS011;12163;49.316;6.092;2022-10-30T04:43:03;33.63;;;9.32;;
23952;SDS011;12163;49.316;6.092;2022-10-30T04:45:31;27.42;;;9.98;;
23952;SDS011;12163;49.316;6.092;2022-10-30T04:50:33;31.90;;;10.90;;
23952;SDS011;12163;49.316;6.092;2022-10-30T04:53:00;30.65;;;10.23;;
23952;SDS011;12163;49.316;6.092;2022-10-30T04:55:36;27.58;;;10.23;;
23952;SDS011;12163;49.316;6.092;2022-10-30T04:58:03;23.02;;;9.70;;
23952;SDS011;12163;49.316;6.092;2022-10-30T05:00:30;19.42;;;9.98;;
23952;SDS011;12163;49.316;6.092;2022-10-30T05:02:58;21.33;;;9.30;;
23952;SDS011;12163;49.316;6.092;2022-10-30T05:05:26;33.85;;;10.02;;
23952;SDS011;12163;49.316;6.092;2022-10-30T05:07:54;22.85;;;10.70;;
23952;SDS011;12163;49.316;6.092;2022-10-30T05:10:21;23.33;;;9.40;;
23952;SDS011;12163;49.316;6.092;2022-10-30T05:12:50;22.95;;;9.55;;
23952;SDS011;12163;49.316;6.092;2022-10-30T05:15:18;27.38;;;10.27;;
23952;SDS011;12163;49.316;6.092;2022-10-30T05:17:44;26.63;;;10.45;;
23952;SDS011;12163;49.316;6.092;2022-10-30T05:20:11;27.63;;;10.88;;
23952;SDS011;12163;49.316;6.092;2022-10-30T05:22:43;25.73;;;10.07;;
23952;SDS011;12163;49.316;6.092;2022-10-30T05:25:10;29.20;;;10.13;;
23952;SDS011;12163;49.316;6.092;2022-10-30T05:27:36;28.92;;;10.45;;
23952;SDS011;12163;49.316;6.092;2022-10-30T05:30:03;32.80;;;10.93;;
23952;SDS011;12163;49.316;6.092;2022-10-30T05:32:30;26.25;;;9.52;;
23952;SDS011;12163;49.316;6.092;2022-10-30T05:34:57;27.00;;;10.15;;
23952;SDS011;12163;49.316;6.092;2022-10-30T05:37:23;32.42;;;10.88;;
23952;SDS011;12163;49.316;6.092;2022-10-30T05:39:50;28.85;;;10.30;;
23952;SDS011;12163;49.316;6.092;2022-10-30T05:42:16;24.02;;;9.57;;
23952;SDS011;12163;49.316;6.092;2022-10-30T05:44:43;26.02;;;10.90;;
23952;SDS011;12163;49.316;6.092;2022-10-30T05:47:26;24.10;;;10.68;;
23952;SDS011;12163;49.316;6.092;2022-10-30T05:49:52;25.63;;;9.45;;
23952;SDS011;12163;49.316;6.092;2022-10-30T05:52:19;33.17;;;10.95;;
23952;SDS011;12163;49.316;6.092;2022-10-30T05:54:46;25.35;;;11.30;;
23952;SDS011;12163;49.316;6.092;2022-10-30T05:57:12;15.10;;;8.75;;
23952;SDS011;12163;49.316;6.092;2022-10-30T05:59:39;30.52;;;9.90;;
23952;SDS011;12163;49.316;6.092;2022-10-30T06:02:05;21.58;;;9.20;;
23952;SDS011;12163;49.316;6.092;2022-10-30T06:04:32;27.75;;;8.95;;
23952;SDS011;12163;49.316;6.092;2022-10-30T06:06:59;19.05;;;7.13;;
23952;SDS011;12163;49.316;6.092;2022-10-30T06:09:25;24.45;;;8.63;;
23952;SDS011;12163;49.316;6.092;2022-10-30T06:11:52;16.35;;;7.55;;
23952;SDS011;12163;49.316;6.092;2022-10-30T06:14:18;19.90;;;7.82;;
23952;SDS011;12163;49.316;6.092;2022-10-30T06:16:45;17.15;;;7.97;;
23952;SDS011;12163;49.316;6.092;2022-10-30T06:19:12;16.77;;;7.20;;
23952;SDS011;12163;49.316;6.092;2022-10-30T06:21:44;23.30;;;9.00;;
23952;SDS011;12163;49.316;6.092;2022-10-30T06:24:11;25.65;;;8.20;;
23952;SDS011;12163;49.316;6.092;2022-10-30T06:26:38;18.52;;;7.20;;
23952;SDS011;12163;49.316;6.092;2022-10-30T06:29:04;16.90;;;7.80;;
23952;SDS011;12163;49.316;6.092;2022-10-30T06:31:31;20.30;;;7.72;;
23952;SDS011;12163;49.316;6.092;2022-10-30T06:33:58;25.52;;;8.20;;
23952;SDS011;12163;49.316;6.092;2022-10-30T06:36:24;17.63;;;7.05;;
23952;SDS011;12163;49.316;6.092;2022-10-30T06:38:51;25.55;;;8.15;;
23952;SDS011;12163;49.316;6.092;2022-10-30T06:41:17;22.92;;;8.02;;
23952;SDS011;12163;49.316;6.092;2022-10-30T06:43:44;29.48;;;8.25;;
23952;SDS011;12163;49.316;6.092;2022-10-30T06:46:10;22.42;;;8.63;;
23952;SDS011;12163;49.316;6.092;2022-10-30T06:48:37;16.63;;;8.52;;
23952;SDS011;12163;49.316;6.092;2022-10-30T06:51:03;26.08;;;9.82;;
23952;SDS011;12163;49.316;6.092;2022-10-30T06:53:30;24.55;;;8.57;;
23952;SDS011;12163;49.316;6.092;2022-10-30T06:55:58;27.48;;;9.73;;
23952;SDS011;12163;49.316;6.092;2022-10-30T06:58:26;26.60;;;8.95;;
23952;SDS011;12163;49.316;6.092;2022-10-30T07:00:53;22.95;;;8.55;;
23952;SDS011;12163;49.316;6.092;2022-10-30T07:03:20;22.67;;;8.45;;
23952;SDS011;12163;49.316;6.092;2022-10-30T07:05:47;20.65;;;9.07;;
23952;SDS011;12163;49.316;6.092;2022-10-30T07:08:14;27.20;;;8.15;;
23952;SDS011;12163;49.316;6.092;2022-10-30T07:10:40;20.45;;;8.20;;
23952;SDS011;12163;49.316;6.092;2022-10-30T07:13:07;22.58;;;7.55;;
23952;SDS011;12163;49.316;6.092;2022-10-30T07:15:34;17.90;;;7.63;;
23952;SDS011;12163;49.316;6.092;2022-10-30T07:18:01;18.48;;;8.05;;
23952;SDS011;12163;49.316;6.092;2022-10-30T07:20:29;20.92;;;7.70;;
23952;SDS011;12163;49.316;6.092;2022-10-30T07:22:58;18.35;;;8.50;;
23952;SDS011;12163;49.316;6.092;2022-10-30T07:25:26;29.42;;;9.95;;
23952;SDS011;12163;49.316;6.092;2022-10-30T07:27:53;21.98;;;7.55;;
23952;SDS011;12163;49.316;6.092;2022-10-30T07:30:21;18.13;;;7.82;;
23952;SDS011;12163;49.316;6.092;2022-10-30T07:32:58;23.88;;;9.27;;
23952;SDS011;12163;49.316;6.092;2022-10-30T07:35:27;29.45;;;8.25;;
23952;SDS011;12163;49.316;6.092;2022-10-30T07:37:54;23.98;;;8.15;;
23952;SDS011;12163;49.316;6.092;2022-10-30T07:40:21;21.05;;;8.20;;
23952;SDS011;12163;49.316;6.092;2022-10-30T07:42:48;20.25;;;7.97;;
23952;SDS011;12163;49.316;6.092;2022-10-30T07:45:14;21.55;;;8.48;;
23952;SDS011;12163;49.316;6.092;2022-10-30T07:47:41;20.83;;;8.55;;
23952;SDS011;12163;49.316;6.092;2022-10-30T07:50:09;19.95;;;9.20;;
23952;SDS011;12163;49.316;6.092;2022-10-30T07:52:36;26.08;;;7.68;;
23952;SDS011;12163;49.316;6.092;2022-10-30T07:55:03;28.00;;;10.38;;
23952;SDS011;12163;49.316;6.092;2022-10-30T07:57:33;19.45;;;9.75;;
23952;SDS011;12163;49.316;6.092;2022-10-30T08:00:02;24.02;;;10.27;;
23952;SDS011;12163;49.316;6.092;2022-10-30T08:02:32;23.60;;;10.10;;
23952;SDS011;12163;49.316;6.092;2022-10-30T08:04:59;23.77;;;9.77;;
23952;SDS011;12163;49.316;6.092;2022-10-30T08:07:29;24.20;;;9.88;;
23952;SDS011;12163;49.316;6.092;2022-10-30T08:09:56;21.58;;;9.43;;
23952;SDS011;12163;49.316;6.092;2022-10-30T08:12:23;23.73;;;10.77;;
23952;SDS011;12163;49.316;6.092;2022-10-30T08:14:51;28.38;;;11.85;;
23952;SDS011;12163;49.316;6.092;2022-10-30T08:17:18;20.98;;;8.38;;
23952;SDS011;12163;49.316;6.092;2022-10-30T08:19:46;28.65;;;10.52;;
23952;SDS011;12163;49.316;6.092;2022-10-30T08:22:12;23.55;;;9.75;;
23952;SDS011;12163;49.316;6.092;2022-10-30T08:24:39;24.75;;;10.35;;
23952;SDS011;12163;49.316;6.092;2022-10-30T08:27:06;18.20;;;8.85;;
23952;SDS011;12163;49.316;6.092;2022-10-30T08:29:33;24.50;;;10.60;;
23952;SDS011;12163;49.316;6.092;2022-10-30T08:32:00;27.77;;;10.65;;
23952;SDS011;12163;49.316;6.092;2022-10-30T08:34:26;27.33;;;10.57;;
23952;SDS011;12163;49.316;6.092;2022-10-30T08:36:56;22.17;;;10.60;;
23952;SDS011;12163;49.316;6.092;2022-10-30T08:39:23;25.10;;;10.13;;
23952;SDS011;12163;49.316;6.092;2022-10-30T08:41:49;26.48;;;11.07;;
23952;SDS011;12163;49.316;6.092;2022-10-30T08:44:16;25.98;;;11.45;;
23952;SDS011;12163;49.316;6.092;2022-10-30T08:46:43;25.50;;;11.77;;
23952;SDS011;12163;49.316;6.092;2022-10-30T08:49:09;22.95;;;11.55;;
23952;SDS011;12163;49.316;6.092;2022-10-30T08:51:36;24.20;;;10.52;;
23952;SDS011;12163;49.316;6.092;2022-10-30T08:54:02;33.28;;;13.55;;
23952;SDS011;12163;49.316;6.092;2022-10-30T08:56:29;21.30;;;10.48;;
23952;SDS011;12163;49.316;6.092;2022-10-30T08:58:55;25.10;;;11.75;;
23952;SDS011;12163;49.316;6.092;2022-10-30T09:01:22;31.52;;;12.57;;
23952;SDS011;12163;49.316;6.092;2022-10-30T09:03:49;34.45;;;12.93;;
23952;SDS011;12163;49.316;6.092;2022-10-30T09:06:15;34.13;;;13.80;;
23952;SDS011;12163;49.316;6.092;2022-10-30T09:08:42;23.73;;;11.77;;
23952;SDS011;12163;49.316;6.092;2022-10-30T09:11:08;33.20;;;13.25;;
23952;SDS011;12163;49.316;6.092;2022-10-30T09:13:35;28.55;;;13.18;;
23952;SDS011;12163;49.316;6.092;2022-10-30T09:16:01;29.25;;;13.27;;
23952;SDS011;12163;49.316;6.092;2022-10-30T09:18:29;26.38;;;12.00;;
23952;SDS011;12163;49.316;6.092;2022-10-30T09:20:56;26.80;;;12.63;;
23952;SDS011;12163;49.316;6.092;2022-10-30T09:23:22;24.73;;;12.60;;
23952;SDS011;12163;49.316;6.092;2022-10-30T09:25:49;28.08;;;13.85;;
23952;SDS011;12163;49.316;6.092;2022-10-30T09:28:15;24.65;;;11.63;;
23952;SDS011;12163;49.316;6.092;2022-10-30T09:30:42;32.50;;;14.00;;
23952;SDS011;12163;49.316;6.092;2022-10-30T09:33:09;32.55;;;14.00;;
23952;SDS011;12163;49.316;6.092;2022-10-30T09:35:35;22.70;;;12.68;;
23952;SDS011;12163;49.316;6.092;2022-10-30T09:38:02;26.40;;;12.23;;
23952;SDS011;12163;49.316;6.092;2022-10-30T09:57:12;30.75;;;14.00;;
23952;SDS011;12163;49.316;6.092;2022-10-30T10:00:04;25.58;;;13.18;;
23952;SDS011;12163;49.316;6.092;2022-10-30T10:02:32;30.08;;;13.13;;
23952;SDS011;12163;49.316;6.092;2022-10-30T10:07:53;31.48;;;14.18;;
23952;SDS011;12163;49.316;6.092;2022-10-30T10:10:34;30.42;;;13.75;;
23952;SDS011;12163;49.316;6.092;2022-10-30T10:13:21;36.25;;;13.68;;
23952;SDS011;12163;49.316;6.092;2022-10-30T10:15:56;28.13;;;12.95;;
23952;SDS011;12163;49.316;6.092;2022-10-30T10:18:42;31.13;;;12.93;;
23952;SDS011;12163;49.316;6.092;2022-10-30T10:21:26;29.95;;;12.77;;
23952;SDS011;12163;49.316;6.092;2022-10-30T10:24:01;26.73;;;11.45;;
23952;SDS011;12163;49.316;6.092;2022-10-30T10:40:31;22.83;;;10.90;;
23952;SDS011;12163;49.316;6.092;2022-10-30T10:43:12;24.88;;;10.30;;
23952;SDS011;12163;49.316;6.092;2022-10-30T10:45:51;24.75;;;10.15;;
23952;SDS011;12163;49.316;6.092;2022-10-30T10:51:43;21.75;;;10.20;;
23952;SDS011;12163;49.316;6.092;2022-10-30T10:54:15;27.15;;;11.45;;
23952;SDS011;12163;49.316;6.092;2022-10-30T10:56:48;26.08;;;9.77;;
23952;SDS011;12163;49.316;6.092;2022-10-30T10:59:21;25.80;;;9.07;;
23952;SDS011;12163;49.316;6.092;2022-10-30T11:01:57;20.38;;;7.90;;
23952;SDS011;12163;49.316;6.092;2022-10-30T11:04:42;27.42;;;8.15;;
23952;SDS011;12163;49.316;6.092;2022-10-30T11:09:51;28.30;;;7.70;;
23952;SDS011;12163;49.316;6.092;2022-10-30T11:12:22;22.98;;;7.80;;
23952;SDS011;12163;49.316;6.092;2022-10-30T11:15:00;18.77;;;7.53;;
23952;SDS011;12163;49.316;6.092;2022-10-30T11:17:38;22.92;;;7.55;;
23952;SDS011;12163;49.316;6.092;2022-10-30T11:20:12;20.95;;;8.23;;
23952;SDS011;12163;49.316;6.092;2022-10-30T11:22:45;27.35;;;8.40;;
23952;SDS011;12163;49.316;6.092;2022-10-30T11:25:19;27.85;;;8.38;;
23952;SDS011;12163;49.316;6.092;2022-10-30T11:27:55;23.50;;;9.15;;
23952;SDS011;12163;49.316;6.092;2022-10-30T11:30:25;22.10;;;9.18;;
23952;SDS011;12163;49.316;6.092;2022-10-30T11:32:54;44.03;;;17.40;;
23952;SDS011;12163;49.316;6.092;2022-10-30T11:35:24;45.13;;;18.88;;
23952;SDS011;12163;49.316;6.092;2022-10-30T11:37:52;30.63;;;11.07;;
23952;SDS011;12163;49.316;6.092;2022-10-30T11:40:38;31.25;;;12.07;;
23952;SDS011;12163;49.316;6.092;2022-10-30T11:43:11;40.72;;;18.20;;
23952;SDS011;12163;49.316;6.092;2022-10-30T11:45:45;146.35;;;61.28;;
23952;SDS011;12163;49.316;6.092;2022-10-30T11:48:20;82.03;;;35.85;;
23952;SDS011;12163;49.316;6.092;2022-10-30T11:50:54;31.70;;;11.05;;
23952;SDS011;12163;49.316;6.092;2022-10-30T11:53:25;31.52;;;12.27;;
23952;SDS011;12163;49.316;6.092;2022-10-30T11:55:56;27.48;;;10.93;;
23952;SDS011;12163;49.316;6.092;2022-10-30T11:58:31;27.02;;;10.30;;
23952;SDS011;12163;49.316;6.092;2022-10-30T12:01:05;22.30;;;9.48;;
23952;SDS011;12163;49.316;6.092;2022-10-30T12:03:39;26.65;;;10.82;;
23952;SDS011;12163;49.316;6.092;2022-10-30T12:06:08;26.40;;;13.00;;
23952;SDS011;12163;49.316;6.092;2022-10-30T12:09:19;32.47;;;11.43;;
23952;SDS011;12163;49.316;6.092;2022-10-30T12:11:48;20.15;;;6.05;;
23952;SDS011;12163;49.316;6.092;2022-10-30T12:14:16;28.48;;;12.68;;
23952;SDS011;12163;49.316;6.092;2022-10-30T12:16:45;13.40;;;6.20;;
23952;SDS011;12163;49.316;6.092;2022-10-30T12:19:16;14.88;;;6.13;;
23952;SDS011;12163;49.316;6.092;2022-10-30T12:21:46;11.07;;;3.53;;
23952;SDS011;12163;49.316;6.092;2022-10-30T12:24:31;11.75;;;3.70;;
23952;SDS011;12163;49.316;6.092;2022-10-30T12:27:02;13.57;;;3.47;;
23952;SDS011;12163;49.316;6.092;2022-10-30T12:29:39;12.93;;;4.18;;
23952;SDS011;12163;49.316;6.092;2022-10-30T12:32:30;14.93;;;3.80;;
23952;SDS011;12163;49.316;6.092;2022-10-30T12:35:08;7.68;;;3.60;;
23952;SDS011;12163;49.316;6.092;2022-10-30T12:37:43;17.48;;;5.00;;
23952;SDS011;12163;49.316;6.092;2022-10-30T12:43:00;11.68;;;3.40;;
23952;SDS011;12163;49.316;6.092;2022-10-30T12:45:31;11.20;;;3.47;;
23952;SDS011;12163;49.316;6.092;2022-10-30T12:48:10;12.25;;;3.10;;
23952;SDS011;12163;49.316;6.092;2022-10-30T12:50:49;9.75;;;3.17;;
23952;SDS011;12163;49.316;6.092;2022-10-30T12:56:17;13.05;;;3.55;;
23952;SDS011;12163;49.316;6.092;2022-10-30T12:58:52;14.48;;;2.85;;
23952;SDS011;12163;49.316;6.092;2022-10-30T13:01:56;11.25;;;3.30;;
23952;SDS011;12163;49.316;6.092;2022-10-30T13:04:35;13.07;;;3.22;;
23952;SDS011;12163;49.316;6.092;2022-10-30T13:10:04;15.13;;;3.28;;
23952;SDS011;12163;49.316;6.092;2022-10-30T13:12:45;15.88;;;3.30;;
23952;SDS011;12163;49.316;6.092;2022-10-30T13:15:31;13.57;;;2.97;;
23952;SDS011;12163;49.316;6.092;2022-10-30T13:18:08;7.57;;;2.88;;
23952;SDS011;12163;49.316;6.092;2022-10-30T13:20:41;16.48;;;3.40;;
23952;SDS011;12163;49.316;6.092;2022-10-30T13:23:15;11.52;;;3.28;;
23952;SDS011;12163;49.316;6.092;2022-10-30T13:26:05;11.07;;;3.17;;
23952;SDS011;12163;49.316;6.092;2022-10-30T13:28:42;13.02;;;3.35;;
23952;SDS011;12163;49.316;6.092;2022-10-30T13:31:13;8.82;;;2.85;;
23952;SDS011;12163;49.316;6.092;2022-10-30T13:36:50;10.98;;;3.10;;
23952;SDS011;12163;49.316;6.092;2022-10-30T13:39:35;12.52;;;4.22;;
23952;SDS011;12163;49.316;6.092;2022-10-30T13:47:29;10.23;;;3.00;;
23952;SDS011;12163;49.316;6.092;2022-10-30T13:52:49;7.35;;;2.80;;
23952;SDS011;12163;49.316;6.092;2022-10-30T14:11:17;15.75;;;3.35;;
23952;SDS011;12163;49.316;6.092;2022-10-30T14:13:57;13.07;;;3.58;;
23952;SDS011;12163;49.316;6.092;2022-10-30T14:16:31;19.15;;;3.90;;
23952;SDS011;12163;49.316;6.092;2022-10-30T14:18:59;17.70;;;3.22;;
23952;SDS011;12163;49.316;6.092;2022-10-30T14:24:03;12.02;;;3.00;;
23952;SDS011;12163;49.316;6.092;2022-10-30T14:26:56;9.23;;;3.38;;
23952;SDS011;12163;49.316;6.092;2022-10-30T14:29:37;13.80;;;4.07;;
23952;SDS011;12163;49.316;6.092;2022-10-30T14:37:11;16.50;;;3.25;;
23952;SDS011;12163;49.316;6.092;2022-10-30T14:39:39;12.85;;;3.33;;
23952;SDS011;12163;49.316;6.092;2022-10-30T14:53:41;11.95;;;3.20;;
23952;SDS011;12163;49.316;6.092;2022-10-30T15:01:39;19.85;;;3.65;;
23952;SDS011;12163;49.316;6.092;2022-10-30T15:10:24;9.82;;;3.38;;
23952;SDS011;12163;49.316;6.092;2022-10-30T15:13:12;11.63;;;3.58;;
23952;SDS011;12163;49.316;6.092;2022-10-30T15:15:58;12.70;;;3.47;;
23952;SDS011;12163;49.316;6.092;2022-10-30T15:18:26;13.40;;;3.47;;
23952;SDS011;12163;49.316;6.092;2022-10-30T15:20:56;14.95;;;3.65;;
23952;SDS011;12163;49.316;6.092;2022-10-30T15:23:30;11.55;;;3.40;;
23952;SDS011;12163;49.316;6.092;2022-10-30T15:26:00;11.60;;;3.60;;
23952;SDS011;12163;49.316;6.092;2022-10-30T15:28:35;11.52;;;3.53;;
23952;SDS011;12163;49.316;6.092;2022-10-30T15:31:07;18.45;;;3.60;;
23952;SDS011;12163;49.316;6.092;2022-10-30T15:33:43;16.40;;;3.58;;
23952;SDS011;12163;49.316;6.092;2022-10-30T15:36:20;17.73;;;3.90;;
23952;SDS011;12163;49.316;6.092;2022-10-30T15:41:52;17.02;;;4.50;;
23952;SDS011;12163;49.316;6.092;2022-10-30T15:44:21;13.98;;;3.80;;
23952;SDS011;12163;49.316;6.092;2022-10-30T15:46:59;15.32;;;3.90;;
23952;SDS011;12163;49.316;6.092;2022-10-30T15:49:28;14.68;;;3.30;;
23952;SDS011;12163;49.316;6.092;2022-10-30T15:51:58;10.75;;;3.60;;
23952;SDS011;12163;49.316;6.092;2022-10-30T15:54:27;11.27;;;3.55;;
23952;SDS011;12163;49.316;6.092;2022-10-30T15:56:56;17.77;;;3.60;;
23952;SDS011;12163;49.316;6.092;2022-10-30T15:59:51;12.02;;;3.60;;
23952;SDS011;12163;49.316;6.092;2022-10-30T16:02:21;16.65;;;3.40;;
23952;SDS011;12163;49.316;6.092;2022-10-30T16:04:49;17.65;;;3.67;;
23952;SDS011;12163;49.316;6.092;2022-10-30T16:07:17;12.45;;;3.70;;
23952;SDS011;12163;49.316;6.092;2022-10-30T16:12:23;17.52;;;3.60;;
23952;SDS011;12163;49.316;6.092;2022-10-30T16:14:52;12.82;;;3.83;;
23952;SDS011;12163;49.316;6.092;2022-10-30T16:17:20;19.60;;;4.28;;
23952;SDS011;12163;49.316;6.092;2022-10-30T16:19:48;14.82;;;3.83;;
23952;SDS011;12163;49.316;6.092;2022-10-30T16:22:20;15.43;;;3.38;;
23952;SDS011;12163;49.316;6.092;2022-10-30T16:24:53;11.23;;;3.35;;
23952;SDS011;12163;49.316;6.092;2022-10-30T16:27:22;15.40;;;4.13;;
23952;SDS011;12163;49.316;6.092;2022-10-30T16:29:50;12.52;;;3.38;;
23952;SDS011;12163;49.316;6.092;2022-10-30T16:32:21;11.48;;;3.65;;
23952;SDS011;12163;49.316;6.092;2022-10-30T16:34:53;12.57;;;3.20;;
23952;SDS011;12163;49.316;6.092;2022-10-30T16:37:32;11.10;;;3.60;;
23952;SDS011;12163;49.316;6.092;2022-10-30T16:40:14;12.20;;;3.67;;
23952;SDS011;12163;49.316;6.092;2022-10-30T16:42:47;9.02;;;3.15;;
23952;SDS011;12163;49.316;6.092;2022-10-30T16:47:52;11.98;;;3.35;;
23952;SDS011;12163;49.316;6.092;2022-10-30T16:50:20;12.68;;;3.95;;
23952;SDS011;12163;49.316;6.092;2022-10-30T16:52:46;12.25;;;3.78;;
23952;SDS011;12163;49.316;6.092;2022-10-30T16:55:18;18.45;;;3.63;;
23952;SDS011;12163;49.316;6.092;2022-10-30T17:00:19;16.37;;;4.00;;
23952;SDS011;12163;49.316;6.092;2022-10-30T17:02:52;17.02;;;3.72;;
23952;SDS011;12163;49.316;6.092;2022-10-30T17:07:58;13.68;;;3.42;;
23952;SDS011;12163;49.316;6.092;2022-10-30T17:10:28;15.95;;;3.65;;
23952;SDS011;12163;49.316;6.092;2022-10-30T17:18:49;14.63;;;4.53;;
23952;SDS011;12163;49.316;6.092;2022-10-30T17:21:19;13.75;;;3.70;;
23952;SDS011;12163;49.316;6.092;2022-10-30T17:23:49;18.90;;;3.75;;